Time;durP1;ratioP1;P1;durP2;ratioP2;P2;SDS_P1;SDS_P2;PMS_P1;PMS_P2;Temp;Humidity;BMP_temperature;BMP_pressure;BME280_temperature;BME280_humidity;BME280_pressure;Samples;Min_cycle;Max_cycle;Signal;HPM_P1;HPM_P2
2023/02/23 00:01:27;;;;;;;70.63;38.03;;;;;;;7.90;100.00;101307.53;10543759;28;20039;-65
2023/02/23 00:06:28;;;;;;;61.70;36.67;;;;;;;7.91;100.00;101307.38;10560159;28;20072;-65
2023/02/23 00:11:29;;;;;;;58.72;36.30;;;;;;;7.93;100.00;101304.50;10544245;28;20495;-65
2023/02/23 00:16:29;;;;;;;64.28;35.97;;;;;;;7.94;100.00;101316.94;10543532;28;20415;-64
2023/02/23 00:21:31;;;;;;;63.97;40.65;;;;;;;7.97;100.00;101311.22;10559555;28;20039;-64
2023/02/23 00:26:33;;;;;;;50.90;34.95;;;;;;;7.97;100.00;101311.22;10543734;28;20036;-66
2023/02/23 00:31:34;;;;;;;67.80;39.10;;;;;;;7.96;100.00;101301.44;10541774;28;20071;-65
2023/02/23 00:36:34;;;;;;;62.83;37.05;;;;;;;7.96;100.00;101303.31;10542127;28;20071;-65
2023/02/23 00:41:35;;;;;;;61.88;36.70;;;;;;;7.97;100.00;101302.28;10542522;28;20028;-66
2023/02/23 00:46:35;;;;;;;62.50;35.70;;;;;;;8.00;100.00;101294.69;10542928;28;20494;-66
2023/02/23 00:51:36;;;;;;;63.40;37.60;;;;;;;7.99;100.00;101287.63;10542689;28;20032;-65
2023/02/23 00:56:37;;;;;;;61.63;37.08;;;;;;;8.00;100.00;101299.25;10524517;28;20502;-67
2023/02/23 01:01:38;;;;;;;73.88;37.10;;;;;;;8.01;100.00;101301.78;10541295;28;20498;-65
2023/02/23 01:06:39;;;;;;;60.58;33.90;;;;;;;8.00;100.00;101310.03;10540665;28;20061;-66
2023/02/23 01:11:41;;;;;;;65.32;37.20;;;;;;;8.00;100.00;101312.75;10540600;28;20032;-66
2023/02/23 01:16:41;;;;;;;52.92;34.97;;;;;;;7.97;100.00;101308.53;10539663;28;20418;-66
2023/02/23 01:21:42;;;;;;;66.70;36.13;;;;;;;7.93;100.00;101308.03;10541626;28;20093;-66
2023/02/23 01:26:43;;;;;;;58.05;35.30;;;;;;;7.90;100.00;101302.13;10540700;28;20122;-66
2023/02/23 01:31:45;;;;;;;67.57;35.40;;;;;;;7.89;100.00;101304.00;10545782;28;20471;-66
2023/02/23 01:36:46;;;;;;;62.65;35.78;;;;;;;7.90;100.00;101310.22;10546348;28;20096;-67
2023/02/23 01:41:46;;;;;;;70.25;38.97;;;;;;;7.87;100.00;101310.56;10543146;28;20368;-66
2023/02/23 01:46:49;;;;;;;67.47;39.47;;;;;;;7.88;100.00;101309.53;10557334;28;20241;-67
2023/02/23 01:51:56;;;;;;;66.35;40.67;;;;;;;7.87;100.00;101316.78;10554950;28;20032;-67
2023/02/23 01:56:58;;;;;;;63.22;37.60;;;;;;;7.87;100.00;101315.94;10539191;28;20032;-66
2023/02/23 02:01:58;;;;;;;68.07;40.72;;;;;;;7.88;100.00;101323.03;10537800;28;20104;-67
2023/02/23 02:07:02;;;;;;;63.20;37.42;;;;;;;7.86;100.00;101315.13;10538720;28;20173;-66
2023/02/23 02:12:07;;;;;;;60.45;38.78;;;;;;;7.88;100.00;101313.09;10554390;28;20050;-67
2023/02/23 02:17:29;;;;;;;78.53;40.97;;;;;;;7.84;100.00;101313.59;10538551;28;20054;-66
2023/02/23 02:22:48;;;;;;;64.88;38.78;;;;;;;7.88;100.00;101317.63;10538580;28;20067;-65
2023/02/23 02:28:16;;;;;;;57.97;35.78;;;;;;;7.93;100.00;101323.38;10537785;28;20028;-67
2023/02/23 02:33:39;;;;;;;69.65;38.30;;;;;;;7.92;100.00;101313.59;10539169;28;20028;-67
2023/02/23 02:39:09;;;;;;;66.40;38.17;;;;;;;7.90;100.00;101315.63;10538926;28;20110;-66
2023/02/23 02:44:29;;;;;;;69.03;36.55;;;;;;;7.88;100.00;101317.63;10539178;28;20123;-66
2023/02/23 02:49:44;;;;;;;68.57;40.15;;;;;;;7.85;100.00;101310.75;10539087;28;20032;-67
2023/02/23 02:54:52;;;;;;;71.85;39.25;;;;;;;7.83;100.00;101310.06;10536927;28;20093;-67
2023/02/23 04:20:57;;;;;;;67.18;35.25;;;;;;;7.66;100.00;101338.03;10542691;28;20056;-67
2023/02/23 04:25:57;;;;;;;70.05;37.67;;;;;;;7.69;100.00;101346.63;10542164;28;20032;-67
2023/02/23 04:30:57;;;;;;;73.38;36.72;;;;;;;7.67;100.00;101339.72;10542743;28;20064;-66
2023/02/23 04:35:58;;;;;;;64.25;37.10;;;;;;;7.68;100.00;101355.72;10541965;28;20028;-67
2023/02/23 04:40:58;;;;;;;75.40;37.70;;;;;;;7.69;100.00;101356.59;10543202;28;20113;-66
2023/02/23 04:45:59;;;;;;;63.75;36.78;;;;;;;7.68;100.00;101355.72;10543375;28;20036;-66
2023/02/23 04:50:59;;;;;;;69.85;38.92;;;;;;;7.65;100.00;101364.13;10541233;28;20059;-67
2023/02/23 04:56:00;;;;;;;67.82;37.97;;;;;;;7.59;100.00;101362.09;10541157;28;20092;-66
2023/02/23 05:01:08;;;;;;;73.35;39.05;;;;;;;7.45;100.00;101350.13;10541266;28;20036;-67
2023/02/23 05:06:09;;;;;;;75.90;37.10;;;;;;;7.35;100.00;101365.63;10541982;28;20046;-66
2023/02/23 05:11:10;;;;;;;64.05;34.92;;;;;;;7.34;100.00;101382.78;10539992;28;20067;-67
2023/02/23 05:16:10;;;;;;;69.45;38.72;;;;;;;7.39;100.00;101382.28;10540346;28;20052;-67
2023/02/23 05:21:11;;;;;;;67.78;37.63;;;;;;;7.38;100.00;101394.91;10541948;28;20470;-67
2023/02/23 05:26:11;;;;;;;72.88;36.58;;;;;;;7.33;100.00;101391.03;10540456;28;20032;-67
2023/02/23 05:31:12;;;;;;;63.80;36.22;;;;;;;7.31;100.00;101391.22;10540700;28;20059;-66
2023/02/23 05:36:15;;;;;;;62.42;34.33;;;;;;;7.32;100.00;101400.13;10465220;28;20055;-67
2023/02/23 05:41:17;;;;;;;68.65;38.38;;;;;;;7.30;100.00;101394.03;10540245;28;20372;-66
2023/02/23 05:46:22;;;;;;;68.40;37.45;;;;;;;7.26;100.00;101403.47;10540543;28;20152;-67
2023/02/23 05:51:23;;;;;;;69.88;37.45;;;;;;;7.26;100.00;101398.94;10555844;28;20384;-67
2023/02/23 05:56:23;;;;;;;58.17;34.53;;;;;;;7.26;100.00;101395.38;10540074;28;20039;-66
2023/02/23 06:01:24;;;;;;;58.33;35.67;;;;;;;7.21;100.00;101399.44;10538804;28;20055;-66
2023/02/23 06:06:25;;;;;;;66.25;37.60;;;;;;;7.26;100.00;101408.84;10540398;28;20043;-66
2023/02/23 06:11:25;;;;;;;64.28;34.20;;;;;;;7.35;100.00;101414.09;10539045;28;20100;-66
2023/02/23 06:16:26;;;;;;;70.90;38.03;;;;;;;7.34;100.00;101411.56;10544076;28;20101;-66
2023/02/23 06:21:26;;;;;;;55.38;34.50;;;;;;;7.34;100.00;101414.25;10546706;28;20112;-66
2023/02/23 06:26:27;;;;;;;72.28;40.33;;;;;;;7.33;100.00;101421.50;10539199;28;20044;-67
2023/02/23 06:31:28;;;;;;;74.25;38.35;;;;;;;7.29;100.00;101420.16;10553660;28;20035;-66
2023/02/23 06:36:29;;;;;;;63.13;39.00;;;;;;;7.32;100.00;101429.75;10554105;28;20089;-66
2023/02/23 06:41:30;;;;;;;65.85;38.65;;;;;;;7.29;100.00;101427.38;10537561;28;20055;-66
2023/02/23 06:46:32;;;;;;;77.05;39.50;;;;;;;7.31;100.00;101428.91;10554264;28;20371;-67
2023/02/23 06:51:32;;;;;;;70.63;40.25;;;;;;;7.26;100.00;101425.03;10536998;28;20069;-66
2023/02/23 06:56:33;;;;;;;82.05;41.00;;;;;;;7.25;100.00;101444.91;10537209;28;20054;-66
2023/02/23 07:01:33;;;;;;;74.53;35.95;;;;;;;7.19;100.00;101452.59;10538002;28;20044;-65
2023/02/23 07:06:34;;;;;;;76.45;39.17;;;;;;;7.19;100.00;101466.06;10538275;28;20066;-67
2023/02/23 07:11:34;;;;;;;74.82;36.42;;;;;;;7.20;100.00;101483.91;10537373;28;20490;-66
2023/02/23 07:16:35;;;;;;;63.40;36.20;;;;;;;7.26;100.00;101495.91;10537854;28;20102;-66
2023/02/23 07:21:36;;;;;;;65.95;33.35;;;;;;;7.38;100.00;101501.84;10537035;28;20036;-67
2023/02/23 07:26:36;;;;;;;63.13;34.20;;;;;;;7.44;100.00;101515.53;10536712;28;20128;-66
2023/02/23 07:31:36;;;;;;;64.10;36.47;;;;;;;7.49;100.00;101516.88;10536704;28;20066;-66
2023/02/23 07:36:37;;;;;;;61.90;30.77;;;;;;;7.52;100.00;101522.78;10537528;28;20028;-66
2023/02/23 07:41:37;;;;;;;58.65;28.75;;;;;;;7.57;100.00;101530.41;10537844;28;20051;-66
2023/02/23 07:46:38;;;;;;;64.10;30.45;;;;;;;7.62;100.00;101536.13;10537972;28;20459;-67
2023/02/23 07:51:39;;;;;;;57.33;28.23;;;;;;;7.69;100.00;101534.50;10545164;28;20036;-66
2023/02/23 07:56:39;;;;;;;44.25;26.75;;;;;;;7.76;100.00;101542.78;10527226;28;20541;-66
2023/02/23 08:01:39;;;;;;;44.55;24.58;;;;;;;7.78;100.00;101543.44;10526075;28;20040;-65
2023/02/23 08:06:41;;;;;;;42.75;22.98;;;;;;;7.81;100.00;101559.28;10544446;28;20047;-67
2023/02/23 08:11:41;;;;;;;42.17;21.92;;;;;;;7.84;100.00;101558.97;10559544;28;20153;-66
2023/02/23 08:16:42;;;;;;;37.15;20.17;;;;;;;7.95;100.00;101566.75;10542553;28;20447;-66
2023/02/23 08:21:42;;;;;;;38.38;22.27;;;;;;;8.09;100.00;101576.06;10545063;28;20036;-67
2023/02/23 08:26:43;;;;;;;37.97;21.20;;;;;;;8.23;100.00;101569.16;10547291;28;20044;-66
2023/02/23 08:31:43;;;;;;;29.70;17.75;;;;;;;8.27;100.00;101573.25;10552778;28;20040;-67
2023/02/23 08:36:46;;;;;;;38.90;18.45;;;;;;;8.33;100.00;101575.28;10551104;28;20064;-66
2023/02/23 08:41:47;;;;;;;29.80;15.00;;;;;;;8.34;100.00;101576.97;10548413;28;20419;-68
2023/02/23 08:46:47;;;;;;;22.27;14.85;;;;;;;8.47;100.00;101588.16;10542118;28;20047;-66
2023/02/23 08:51:48;;;;;;;20.25;12.95;;;;;;;8.71;100.00;101592.72;10542762;28;20048;-66
2023/02/23 08:56:48;;;;;;;20.35;13.90;;;;;;;9.12;100.00;101602.66;10542515;28;20060;-66
2023/02/23 09:01:48;;;;;;;24.25;13.95;;;;;;;9.59;100.00;101604.59;10557373;28;20111;-67
2023/02/23 09:06:49;;;;;;;18.83;11.70;;;;;;;9.50;100.00;101603.75;10540228;28;20601;-66
2023/02/23 09:11:49;;;;;;;15.23;11.43;;;;;;;9.58;100.00;101613.72;10541899;28;20128;-66
2023/02/23 09:16:50;;;;;;;15.10;10.82;;;;;;;9.65;100.00;101612.00;10540246;28;20071;-66
2023/02/23 09:21:50;;;;;;;15.95;9.93;;;;;;;9.67;100.00;101621.66;10542302;28;20126;-67
2023/02/23 09:26:52;;;;;;;13.60;8.68;;;;;;;9.45;100.00;101622.38;10541131;28;20164;-67
2023/02/23 09:31:56;;;;;;;18.73;11.30;;;;;;;9.25;100.00;101621.88;10540271;28;20472;-66
2023/02/23 09:36:56;;;;;;;19.10;12.15;;;;;;;9.20;100.00;101627.81;10540740;28;20028;-67
2023/02/23 09:42:13;;;;;;;21.63;12.23;;;;;;;9.30;100.00;101625.78;10541286;28;20043;-68
2023/02/23 09:47:29;;;;;;;17.48;11.98;;;;;;;9.42;100.00;101626.25;10540090;28;20027;-67
2023/02/23 09:52:58;;;;;;;25.33;12.43;;;;;;;9.51;100.00;101627.09;10554747;28;20040;-67
2023/02/23 09:58:07;;;;;;;19.17;10.88;;;;;;;9.59;100.00;101635.19;10555212;28;20252;-67
2023/02/23 10:03:27;;;;;;;16.80;10.70;;;;;;;9.82;100.00;101637.97;10521889;28;20035;-67
2023/02/23 10:08:48;;;;;;;12.50;10.07;;;;;;;9.58;100.00;101638.91;10521619;28;20039;-66
2023/02/23 10:14:08;;;;;;;17.17;8.85;;;;;;;9.47;100.00;101634.69;10536957;28;20123;-68
2023/02/23 10:19:18;;;;;;;26.83;8.93;;;;;;;9.61;100.00;101637.72;10538969;28;20055;-67
2023/02/23 10:24:26;;;;;;;22.33;9.65;;;;;;;9.66;100.00;101652.38;10537482;28;20123;-67
2023/02/23 10:29:32;;;;;;;13.07;9.75;;;;;;;9.60;100.00;101646.81;10520700;28;20365;-67
2023/02/23 10:34:32;;;;;;;17.30;13.50;;;;;;;9.45;100.00;101661.06;10504567;28;20024;-67
2023/02/23 10:39:33;;;;;;;18.10;11.05;;;;;;;9.32;100.00;101658.88;10537536;28;20467;-67
2023/02/23 10:44:33;;;;;;;15.80;12.43;;;;;;;9.29;100.00;101664.63;10538315;28;20036;-67
2023/02/23 10:49:45;;;;;;;16.88;12.25;;;;;;;9.04;100.00;101665.66;10554814;28;20040;-67
2023/02/23 10:54:47;;;;;;;28.00;12.35;;;;;;;8.94;100.00;101665.81;10556624;28;20024;-67
2023/02/23 11:00:01;;;;;;;17.42;11.35;;;;;;;8.90;100.00;101667.16;10542378;28;20533;-67
2023/02/23 11:05:02;;;;;;;11.82;9.77;;;;;;;8.90;100.00;101675.25;10545064;28;20046;-67
2023/02/23 11:10:26;;;;;;;22.20;10.82;;;;;;;8.96;100.00;101671.88;10537121;28;20489;-68
2023/02/23 11:15:31;;;;;;;22.33;10.85;;;;;;;9.00;100.00;101680.53;10553730;28;20055;-67
2023/02/23 11:20:37;;;;;;;15.38;10.70;;;;;;;9.12;100.00;101678.31;10522669;28;20165;-67
2023/02/23 11:25:37;;;;;;;15.63;11.87;;;;;;;9.40;100.00;101668.00;10546449;28;20074;-68
2023/02/23 11:30:41;;;;;;;15.40;11.13;;;;;;;9.66;100.00;101668.63;10543975;28;20044;-67
2023/02/23 11:35:42;;;;;;;23.13;14.15;;;;;;;9.93;100.00;101658.41;10544516;28;20106;-67
2023/02/23 11:40:42;;;;;;;16.17;11.48;;;;;;;10.08;100.00;101663.91;10527066;28;20032;-67
2023/02/23 11:45:47;;;;;;;19.10;12.68;;;;;;;10.04;100.00;101674.25;10544068;28;20090;-67
2023/02/23 11:50:48;;;;;;;23.85;13.80;;;;;;;9.82;100.00;101664.19;10559466;28;20155;-67
2023/02/23 11:55:50;;;;;;;27.73;16.38;;;;;;;9.77;100.00;101667.41;10542668;28;20144;-67
2023/02/23 12:00:58;;;;;;;21.23;16.45;;;;;;;9.92;100.00;101662.97;10542327;28;20028;-67
2023/02/23 12:05:59;;;;;;;28.27;17.02;;;;;;;10.16;100.00;101656.63;10526339;28;20036;-67
2023/02/23 12:10:59;;;;;;;21.48;14.05;;;;;;;10.29;100.00;101672.31;10544346;28;20391;-67
2023/02/23 12:16:16;;;;;;;26.90;17.08;;;;;;;10.10;100.00;101664.59;10542035;28;20102;-67
2023/02/23 12:21:34;;;;;;;29.67;16.50;;;;;;;10.22;100.00;101671.31;10529693;28;20044;-67
2023/02/23 12:26:48;;;;;;;22.70;15.50;;;;;;;10.54;100.00;101664.91;10559173;28;20085;-67
2023/02/23 12:32:01;;;;;;;26.80;15.18;;;;;;;10.56;100.00;101662.00;10542411;28;20036;-67
2023/02/23 12:37:08;;;;;;;36.83;17.35;;;;;;;10.38;100.00;101671.25;10542358;28;20024;-68
2023/02/23 12:42:30;;;;;;;35.80;20.48;;;;;;;10.17;100.00;101670.97;10542364;28;20036;-67
2023/02/23 12:47:50;;;;;;;29.10;18.02;;;;;;;10.15;100.00;101665.75;10543440;28;20387;-67
2023/02/23 12:53:11;;;;;;;34.20;19.55;;;;;;;10.23;100.00;101667.56;10541999;28;20028;-68
2023/02/23 12:58:36;;;;;;;28.90;20.02;;;;;;;10.21;100.00;101664.19;10541841;28;20032;-70
2023/02/23 13:03:36;;;;;;;31.00;17.45;;;;;;;10.14;100.00;101669.47;10542390;28;20032;-67
2023/02/23 13:08:57;;;;;;;30.50;16.58;;;;;;;10.28;100.00;101667.09;10548416;28;20077;-67
2023/02/23 13:14:14;;;;;;;26.58;15.95;;;;;;;10.39;100.00;101659.41;10542538;28;20028;-68
2023/02/23 13:19:37;;;;;;;28.95;13.93;;;;;;;10.39;100.00;101658.56;10561059;28;20052;-68
2023/02/23 13:24:39;;;;;;;24.67;12.55;;;;;;;10.53;100.00;101662.38;10547821;28;20444;-68
2023/02/23 13:29:41;;;;;;;24.60;12.63;;;;;;;10.53;100.00;101646.13;10527886;28;20031;-67
2023/02/23 13:34:48;;;;;;;19.85;10.80;;;;;;;10.51;100.00;101656.31;10540083;28;20032;-67
2023/02/23 13:40:09;;;;;;;20.40;11.77;;;;;;;10.31;100.00;101654.03;10556222;28;20042;-66
2023/02/23 13:45:25;;;;;;;24.73;13.20;;;;;;;10.36;100.00;101654.34;10555013;28;20114;-68
2023/02/23 13:50:30;;;;;;;23.17;14.25;;;;;;;10.12;100.00;101665.28;10538910;28;20055;-69
2023/02/23 13:55:31;;;;;;;18.73;12.25;;;;;;;10.07;100.00;101664.94;10521828;28;20027;-68
2023/02/23 14:00:33;;;;;;;21.77;15.07;;;;;;;10.12;100.00;101660.69;10538399;28;20032;-68
2023/02/23 14:05:43;;;;;;;18.85;13.40;;;;;;;10.10;100.00;101667.31;10538551;28;20032;-67
2023/02/23 14:10:44;;;;;;;17.77;11.52;;;;;;;10.09;100.00;101671.03;10539942;28;20043;-67
2023/02/23 14:15:52;;;;;;;28.70;13.50;;;;;;;9.89;100.00;101657.91;10521499;28;20048;-67
2023/02/23 14:20:56;;;;;;;19.27;10.18;;;;;;;9.89;100.00;101663.34;10553490;28;20055;-68
2023/02/23 14:26:26;;;;;;;16.40;8.30;;;;;;;9.89;100.00;101657.91;10521309;28;20048;-67
2023/02/23 14:31:27;;;;;;;14.27;9.02;;;;;;;9.84;100.00;101652.19;10538492;28;20046;-67
2023/02/23 14:36:31;;;;;;;17.63;7.78;;;;;;;9.80;100.00;101663.53;10520763;28;20115;-67
2023/02/23 14:41:37;;;;;;;15.05;9.02;;;;;;;9.69;100.00;101667.44;10520655;28;20111;-68
2023/02/23 14:46:38;;;;;;;11.77;6.87;;;;;;;9.55;100.00;101661.72;10537531;28;20039;-68
2023/02/23 14:51:47;;;;;;;9.20;6.22;;;;;;;9.64;100.00;101667.97;10503695;28;20459;-67
2023/02/23 14:56:49;;;;;;;12.65;6.47;;;;;;;9.68;100.00;101679.28;10524521;28;20073;-67
2023/02/23 15:01:50;;;;;;;14.07;4.78;;;;;;;9.53;100.00;101676.41;10518567;28;20017;-68
2023/02/23 15:06:57;;;;;;;6.78;3.75;;;;;;;9.39;100.00;101677.13;10507124;28;20056;-67
2023/02/23 15:11:59;;;;;;;11.55;4.30;;;;;;;9.31;100.00;101686.06;10506321;28;20082;-67
2023/02/23 15:16:59;;;;;;;11.05;3.90;;;;;;;9.21;100.00;101690.81;10487205;28;20033;-67
2023/02/23 15:22:00;;;;;;;23.85;4.85;;;;;;;9.00;100.00;101696.72;10487622;28;20044;-69
2023/02/23 15:27:01;;;;;;;21.42;4.05;;;;;;;8.72;100.00;101698.88;10504982;28;20499;-67
2023/02/23 15:32:16;;;;;;;31.10;9.68;;;;;;;8.57;100.00;101704.06;10486156;28;20033;-68
2023/02/23 15:37:22;;;;;;;23.17;8.15;;;;;;;8.48;100.00;101716.69;10503122;28;20032;-67
2023/02/23 15:42:25;;;;;;;21.63;8.38;;;;;;;8.19;100.00;101716.22;10511975;28;20025;-67
2023/02/23 15:47:34;;;;;;;14.20;5.90;;;;;;;8.10;100.00;101718.88;10511468;28;20057;-68
2023/02/23 15:52:38;;;;;;;31.85;8.88;;;;;;;7.99;100.00;101721.84;10505756;28;20038;-68
2023/02/23 15:57:55;;;;;;;25.48;9.25;;;;;;;7.91;100.00;101716.41;10485995;28;20090;-67
2023/02/23 16:02:56;;;;;;;22.30;8.10;;;;;;;7.85;100.00;101711.69;10502299;28;20036;-68
2023/02/23 16:08:04;;;;;;;27.25;6.55;;;;;;;7.75;100.00;101727.09;10501415;28;20033;-68
2023/02/23 16:13:05;;;;;;;26.15;8.70;;;;;;;7.69;100.00;101734.81;10501947;28;20060;-67
2023/02/23 16:18:15;;;;;;;19.15;6.90;;;;;;;7.63;100.00;101740.84;10500869;28;20076;-67
2023/02/23 16:23:43;;;;;;;14.90;7.68;;;;;;;7.60;100.00;101741.16;10500772;28;20028;-68
2023/02/23 16:28:44;;;;;;;30.27;8.23;;;;;;;7.52;100.00;101733.00;10500047;28;20155;-67
2023/02/23 16:33:55;;;;;;;26.20;7.32;;;;;;;7.48;100.00;101736.19;10483588;28;20025;-67
2023/02/23 16:38:58;;;;;;;28.45;7.40;;;;;;;7.47;100.00;101746.13;10501666;28;20115;-68
2023/02/23 16:44:02;;;;;;;20.23;6.60;;;;;;;7.40;100.00;101748.59;10501422;28;20041;-68
2023/02/23 16:49:08;;;;;;;22.80;6.85;;;;;;;7.31;100.00;101751.38;10501243;28;20064;-68
2023/02/23 16:54:09;;;;;;;16.63;6.20;;;;;;;7.16;100.00;101757.28;10499688;28;20067;-66
2023/02/23 16:59:10;;;;;;;24.38;7.60;;;;;;;7.05;100.00;101762.94;10498653;28;20024;-67
2023/02/23 17:04:14;;;;;;;27.17;9.85;;;;;;;6.95;100.00;101770.22;10482129;28;20415;-66
2023/02/23 17:09:14;;;;;;;28.23;8.20;;;;;;;6.83;100.00;101768.72;10484209;28;20086;-66
2023/02/23 17:14:22;;;;;;;20.15;7.25;;;;;;;6.62;100.00;101766.31;10467147;28;20024;-65
2023/02/23 17:19:23;;;;;;;21.80;7.22;;;;;;;6.40;100.00;101775.63;10482946;28;20417;-66
2023/02/23 17:24:24;;;;;;;36.42;7.50;;;;;;;6.34;100.00;101782.44;10499198;28;20409;-65
2023/02/23 17:29:25;;;;;;;14.95;4.65;;;;;;;6.23;100.00;101788.03;10500540;28;20044;-67
2023/02/23 17:34:26;;;;;;;25.40;6.60;;;;;;;6.17;100.00;101794.00;10501904;28;20116;-67
2023/02/23 17:39:26;;;;;;;18.83;6.50;;;;;;;6.12;100.00;101797.09;10504448;28;20033;-65
2023/02/23 17:44:27;;;;;;;54.88;9.40;;;;;;;6.13;100.00;101798.81;10502202;28;20032;-68
2023/02/23 17:49:27;;;;;;;23.52;6.38;;;;;;;6.14;100.00;101811.25;10503390;28;20396;-67
2023/02/23 17:54:28;;;;;;;22.63;8.32;;;;;;;6.09;100.00;101801.94;10502832;28;20036;-65
2023/02/23 17:59:28;;;;;;;23.60;4.72;;;;;;;6.10;100.00;101804.50;10502688;28;20036;-66
2023/02/23 18:04:29;;;;;;;22.60;4.00;;;;;;;6.04;100.00;101811.28;10504823;28;20043;-65
2023/02/23 18:09:29;;;;;;;18.33;4.57;;;;;;;5.93;100.00;101819.50;10509593;28;20045;-67
2023/02/23 18:14:30;;;;;;;20.13;4.35;;;;;;;5.91;100.00;101820.63;10505411;28;20056;-65
2023/02/23 18:19:31;;;;;;;22.98;5.47;;;;;;;5.94;100.00;101826.59;10498264;28;20575;-68
2023/02/23 18:24:31;;;;;;;20.63;5.65;;;;;;;5.93;100.00;101818.66;10502050;28;20040;-67
2023/02/23 18:29:33;;;;;;;14.98;3.92;;;;;;;5.82;100.00;101836.63;10500808;28;20029;-66
2023/02/23 18:34:33;;;;;;;18.88;4.75;;;;;;;5.72;100.00;101843.84;10469330;28;20380;-65
2023/02/23 18:39:33;;;;;;;16.15;3.58;;;;;;;5.72;100.00;101838.47;10501846;28;20041;-66
2023/02/23 18:44:34;;;;;;;26.50;4.85;;;;;;;5.66;100.00;101841.75;10497932;28;20036;-67
2023/02/23 18:49:35;;;;;;;24.42;4.47;;;;;;;5.47;100.00;101836.38;10495999;28;20142;-67
2023/02/23 18:54:38;;;;;;;12.07;4.40;;;;;;;5.30;100.00;101838.78;10497589;28;20510;-66
2023/02/23 18:59:38;;;;;;;17.38;4.00;;;;;;;5.17;100.00;101834.63;10496655;28;20086;-67
2023/02/23 19:04:39;;;;;;;9.02;3.67;;;;;;;5.03;100.00;101839.41;10496640;28;20486;-67
2023/02/23 19:09:42;;;;;;;18.92;4.40;;;;;;;4.93;100.00;101835.88;10495147;28;20033;-67
2023/02/23 19:14:42;;;;;;;23.75;4.63;;;;;;;4.85;100.00;101827.66;10497402;28;20025;-66
2023/02/23 19:19:42;;;;;;;13.77;3.67;;;;;;;4.72;100.00;101824.38;10498418;28;20060;-67
2023/02/23 19:24:43;;;;;;;15.15;5.28;;;;;;;4.49;100.00;101826.41;10498430;28;20032;-65
2023/02/23 19:29:44;;;;;;;21.95;4.53;;;;;;;4.45;100.00;101814.25;10501454;28;20464;-67
2023/02/23 19:34:47;;;;;;;12.50;3.53;;;;;;;4.37;100.00;101823.84;10498742;28;20025;-66
2023/02/23 19:39:49;;;;;;;14.40;3.08;;;;;;;4.34;100.00;101825.91;10498680;28;20036;-67
2023/02/23 19:44:49;;;;;;;14.80;4.97;;;;;;;4.16;100.00;101814.97;10504269;28;20036;-68
2023/02/23 19:49:50;;;;;;;8.18;4.18;;;;;;;4.22;100.00;101824.31;10505965;28;20048;-67
2023/02/23 19:54:50;;;;;;;20.38;6.38;;;;;;;4.15;100.00;101824.00;10505557;28;20043;-67
2023/02/23 19:59:51;;;;;;;10.77;5.22;;;;;;;4.08;100.00;101829.03;10514935;28;20055;-68
2023/02/23 20:04:51;;;;;;;18.60;3.08;;;;;;;3.92;100.00;101821.50;10536971;28;20490;-67
2023/02/23 20:09:52;;;;;;;8.88;3.92;;;;;;;3.79;100.00;101825.31;10546081;28;20076;-67
2023/02/23 20:14:54;;;;;;;14.43;5.70;;;;;;;3.75;100.00;101824.75;10545725;28;20457;-67
2023/02/23 20:19:54;;;;;;;17.05;4.60;;;;;;;3.65;100.00;101823.81;10527615;28;20102;-70
2023/02/23 20:24:55;;;;;;;15.68;5.15;;;;;;;3.56;100.00;101814.72;10548999;28;20033;-68
2023/02/23 20:29:57;;;;;;;13.73;4.13;;;;;;;3.50;100.00;101818.75;10546949;28;20036;-66
2023/02/23 20:34:59;;;;;;;13.73;4.55;;;;;;;3.34;100.00;101810.31;10544568;28;20038;-68
2023/02/23 20:40:00;;;;;;;14.45;4.25;;;;;;;3.18;100.00;101807.22;10544711;28;20044;-68
2023/02/23 20:45:00;;;;;;;15.25;4.15;;;;;;;3.07;100.00;101801.94;10542567;28;20048;-66
2023/02/23 20:50:03;;;;;;;9.85;3.33;;;;;;;3.00;100.00;101805.09;10542154;28;20112;-66
2023/02/23 20:55:04;;;;;;;11.02;5.10;;;;;;;2.91;100.00;101807.69;10540256;28;20035;-67
2023/02/23 21:00:08;;;;;;;9.80;4.43;;;;;;;2.82;100.00;101813.78;10540625;28;20035;-67
2023/02/23 21:05:11;;;;;;;15.35;3.78;;;;;;;2.73;100.00;101799.31;10542283;28;20582;-68
2023/02/23 21:10:12;;;;;;;12.75;4.10;;;;;;;2.65;100.00;101802.63;10542424;28;20523;-67
2023/02/23 21:15:13;;;;;;;11.90;4.38;;;;;;;2.59;100.00;101800.44;10541192;28;20032;-69
2023/02/23 21:20:14;;;;;;;7.93;3.38;;;;;;;2.55;100.00;101798.97;10506153;28;20388;-70
2023/02/23 21:25:18;;;;;;;15.27;4.35;;;;;;;2.53;100.00;101796.44;10541344;28;20032;-68
2023/02/23 21:30:20;;;;;;;18.75;3.85;;;;;;;2.49;100.00;101795.00;10538706;28;20528;-67
2023/02/23 21:35:20;;;;;;;19.27;5.65;;;;;;;2.39;100.00;101796.66;10540206;28;20031;-67
2023/02/23 21:40:22;;;;;;;17.90;5.15;;;;;;;2.27;100.00;101798.53;10539338;28;20031;-68
2023/02/23 21:45:22;;;;;;;16.30;4.53;;;;;;;2.15;100.00;101802.16;10540648;28;20032;-70
2023/02/23 21:50:22;;;;;;;12.35;4.55;;;;;;;2.02;100.00;101798.75;10539135;28;20040;-69
2023/02/23 21:55:23;;;;;;;11.25;4.93;;;;;;;1.93;100.00;101800.31;10540175;28;20116;-67
2023/02/23 22:00:23;;;;;;;12.80;6.28;;;;;;;1.87;100.00;101790.09;10538546;28;20040;-67
2023/02/23 22:05:24;;;;;;;18.25;5.32;;;;;;;1.84;100.00;101787.66;10537029;28;20103;-67
2023/02/23 22:10:25;;;;;;;18.13;5.85;;;;;;;1.76;100.00;101784.75;10539064;28;20032;-66
2023/02/23 22:15:28;;;;;;;23.35;6.85;;;;;;;1.70;100.00;101787.91;10538364;28;20067;-69
2023/02/23 22:20:28;;;;;;;9.10;4.20;;;;;;;1.63;100.00;101784.84;10539636;28;20460;-68
2023/02/23 22:25:29;;;;;;;20.98;4.72;;;;;;;1.59;100.00;101794.88;10539499;28;20081;-69
2023/02/23 22:30:29;;;;;;;13.05;4.00;;;;;;;1.57;100.00;101788.84;10538488;28;20097;-71
2023/02/23 22:35:30;;;;;;;7.45;4.28;;;;;;;1.53;100.00;101787.38;10539745;28;20040;-67
2023/02/23 22:40:30;;;;;;;10.15;4.63;;;;;;;1.51;100.00;101783.97;10548729;28;20040;-67
2023/02/23 22:45:30;;;;;;;29.40;5.50;;;;;;;1.50;100.00;101776.94;10547246;28;20039;-66
2023/02/23 22:50:32;;;;;;;9.65;4.63;;;;;;;1.56;100.00;101776.47;10539994;28;20032;-67
2023/02/23 22:55:33;;;;;;;11.93;5.28;;;;;;;1.61;100.00;101766.25;10538205;28;20039;-67
2023/02/23 23:00:34;;;;;;;27.33;5.20;;;;;;;1.78;100.00;101767.63;10538662;28;20039;-66
2023/02/23 23:05:36;;;;;;;10.35;4.50;;;;;;;1.87;100.00;101766.06;10537073;28;20040;-66
2023/02/23 23:10:36;;;;;;;19.40;7.35;;;;;;;2.09;100.00;101765.22;10537985;28;20472;-67
2023/02/23 23:15:39;;;;;;;14.60;5.28;;;;;;;2.30;100.00;101752.84;10538809;28;20107;-66
2023/02/23 23:20:42;;;;;;;12.32;4.15;;;;;;;2.36;100.00;101754.16;10544191;28;20186;-66
2023/02/23 23:25:46;;;;;;;19.63;4.68;;;;;;;2.44;100.00;101748.22;10546891;28;20024;-67
2023/02/23 23:30:46;;;;;;;11.85;3.40;;;;;;;2.60;100.00;101735.28;10544191;28;20129;-66
2023/02/23 23:35:48;;;;;;;15.70;5.53;;;;;;;2.71;100.00;101715.69;10544835;28;20067;-67
2023/02/23 23:40:51;;;;;;;20.90;5.82;;;;;;;2.84;100.00;101711.03;10546116;28;20040;-66
2023/02/23 23:45:52;;;;;;;14.35;4.63;;;;;;;2.94;100.00;101705.78;10550318;28;20028;-67
2023/02/23 23:50:55;;;;;;;6.47;3.72;;;;;;;2.94;100.00;101695.06;10554933;28;20040;-67
2023/02/23 23:55:55;;;;;;;11.43;4.20;;;;;;;2.91;100.00;101693.50;10546067;28;20456;-67
